createdAt,value
2017-09-15T00:00:19.374Z,2.17
2017-09-15T00:02:46.793Z,1.97
2017-09-15T00:05:13.130Z,2.07
2017-09-15T00:07:39.428Z,2.10
2017-09-15T00:10:05.679Z,2.00
2017-09-15T00:12:32.053Z,2.73
2017-09-15T00:14:58.291Z,1.97
2017-09-15T00:17:24.545Z,2.90
2017-09-15T00:19:50.799Z,2.10
2017-09-15T00:22:17.026Z,2.33
2017-09-15T00:24:43.259Z,2.37
2017-09-15T00:27:09.500Z,2.10
2017-09-15T00:29:35.734Z,1.70
2017-09-15T00:32:02.082Z,2.30
2017-09-15T00:34:29.087Z,2.03
2017-09-15T00:36:55.318Z,2.33
2017-09-15T00:39:21.555Z,2.10
2017-09-15T00:41:47.863Z,3.10
2017-09-15T00:44:14.090Z,2.70
2017-09-15T00:46:40.319Z,3.80
2017-09-15T00:49:06.550Z,2.30
2017-09-15T00:51:32.966Z,2.17
2017-09-15T00:53:59.389Z,2.40
2017-09-15T00:56:26.387Z,2.13
2017-09-15T00:58:52.650Z,2.67
2017-09-15T01:01:18.883Z,2.53
2017-09-15T01:03:45.879Z,3.17
2017-09-15T01:06:12.106Z,3.00
2017-09-15T01:08:38.339Z,2.13
2017-09-15T01:11:04.608Z,3.10
2017-09-15T01:13:30.843Z,2.83
2017-09-15T01:15:57.087Z,1.87
2017-09-15T01:18:24.095Z,2.50
2017-09-15T01:20:50.341Z,2.77
2017-09-15T01:23:16.579Z,2.53
2017-09-15T01:25:42.827Z,2.40
2017-09-15T01:28:09.063Z,2.83
2017-09-15T01:30:36.054Z,2.43
2017-09-15T01:33:02.326Z,2.67
2017-09-15T01:35:28.568Z,2.60
2017-09-15T01:37:54.798Z,2.30
2017-09-15T01:40:21.047Z,2.53
2017-09-15T01:42:48.008Z,3.80
2017-09-15T01:45:14.234Z,2.37
2017-09-15T01:47:41.410Z,3.00
2017-09-15T01:50:07.658Z,2.53
2017-09-15T01:52:33.972Z,2.90
2017-09-15T01:55:01.131Z,3.50
2017-09-15T01:57:28.175Z,2.90
2017-09-15T01:59:54.451Z,2.60
2017-09-15T02:02:20.786Z,2.53
2017-09-15T02:04:47.045Z,2.97
2017-09-15T02:07:14.001Z,3.27
2017-09-15T02:09:40.238Z,2.87
2017-09-15T02:12:07.308Z,2.00
2017-09-15T02:14:33.575Z,2.43
2017-09-15T02:16:59.912Z,4.37
2017-09-15T02:19:26.130Z,3.37
2017-09-15T02:21:52.356Z,3.57
2017-09-15T02:24:18.629Z,3.10
2017-09-15T02:26:45.586Z,3.10
2017-09-15T02:29:12.560Z,2.50
2017-09-15T02:31:38.807Z,2.60
2017-09-15T02:34:05.047Z,2.20
2017-09-15T02:36:31.325Z,2.80
2017-09-15T02:38:57.639Z,2.50
2017-09-15T02:41:24.611Z,4.23
2017-09-15T02:43:50.838Z,3.13
2017-09-15T02:46:17.084Z,3.20
2017-09-15T02:48:43.354Z,2.77
2017-09-15T02:51:09.574Z,2.70
2017-09-15T02:53:39.141Z,3.80
2017-09-15T02:56:06.335Z,2.27
2017-09-15T02:58:32.537Z,2.90
2017-09-15T03:00:59.501Z,2.63
2017-09-15T03:03:25.713Z,2.77
2017-09-15T03:05:52.654Z,3.10
2017-09-15T03:08:19.614Z,2.40
2017-09-15T03:10:45.871Z,2.10
2017-09-15T03:13:12.074Z,3.30
2017-09-15T03:15:38.309Z,3.27
2017-09-15T03:18:04.518Z,3.30
2017-09-15T03:20:31.545Z,2.67
2017-09-15T03:22:57.773Z,3.47
2017-09-15T03:25:23.993Z,3.33
2017-09-15T03:27:50.218Z,3.40
2017-09-15T03:30:16.459Z,3.43
2017-09-15T03:32:42.722Z,2.40
2017-09-15T03:35:09.673Z,2.50
2017-09-15T03:37:37.883Z,4.03
2017-09-15T03:40:04.133Z,3.43
2017-09-15T03:42:30.333Z,3.00
2017-09-15T03:44:56.563Z,2.50
2017-09-15T03:47:22.767Z,4.17
2017-09-15T03:49:49.018Z,2.53
2017-09-15T03:52:15.246Z,2.67
2017-09-15T03:54:41.526Z,2.20
2017-09-15T03:57:07.914Z,3.33
2017-09-15T03:59:34.177Z,3.40
2017-09-15T04:02:00.402Z,2.40
2017-09-15T04:04:26.594Z,3.30
2017-09-15T04:06:53.584Z,3.00
2017-09-15T04:09:19.805Z,2.10
2017-09-15T04:11:45.997Z,2.30
2017-09-15T04:14:12.966Z,3.10
2017-09-15T04:16:39.173Z,2.33
2017-09-15T04:19:06.126Z,2.70
2017-09-15T04:21:33.102Z,3.07
2017-09-15T04:24:00.178Z,3.03
2017-09-15T04:26:26.394Z,3.00
2017-09-15T04:28:52.637Z,3.73
2017-09-15T04:31:18.895Z,3.30
2017-09-15T04:33:45.114Z,2.20
2017-09-15T04:36:11.342Z,3.00
2017-09-15T04:38:37.546Z,2.57
2017-09-15T04:41:03.759Z,3.03
2017-09-15T04:43:30.806Z,2.70
2017-09-15T04:45:57.015Z,3.03
2017-09-15T04:48:23.982Z,3.60
2017-09-15T04:50:52.839Z,3.10
2017-09-15T04:53:19.044Z,2.53
2017-09-15T04:55:45.506Z,3.30
2017-09-15T04:58:11.906Z,2.63
2017-09-15T05:00:38.127Z,3.17
2017-09-15T05:03:04.396Z,3.00
2017-09-15T05:05:31.490Z,3.13
2017-09-15T05:07:58.551Z,2.87
2017-09-15T05:10:24.778Z,3.93
2017-09-15T05:12:51.154Z,2.80
2017-09-15T05:15:17.367Z,2.57
2017-09-15T05:17:43.578Z,2.93
2017-09-15T05:20:09.837Z,3.07
2017-09-15T05:22:36.066Z,2.90
2017-09-15T05:25:02.432Z,3.63
2017-09-15T05:27:28.741Z,2.83
2017-09-15T05:29:54.967Z,3.40
2017-09-15T05:32:21.982Z,2.40
2017-09-15T05:34:48.209Z,3.33
2017-09-15T05:37:14.458Z,3.10
2017-09-15T05:39:40.662Z,3.00
2017-09-15T05:42:06.890Z,2.40
2017-09-15T05:44:33.837Z,3.50
2017-09-15T05:47:00.077Z,2.87
2017-09-15T05:49:26.301Z,3.10
2017-09-15T05:51:53.248Z,2.90
2017-09-15T05:54:20.207Z,2.70
2017-09-15T05:56:46.517Z,4.17
2017-09-15T05:59:12.885Z,2.87
2017-09-15T06:01:39.118Z,3.40
2017-09-15T06:04:05.346Z,3.57
2017-09-15T06:06:31.554Z,3.30
2017-09-15T06:08:57.817Z,3.17
2017-09-15T06:11:24.058Z,2.53
2017-09-15T06:13:50.266Z,3.90
2017-09-15T06:16:16.487Z,2.97
2017-09-15T06:18:42.717Z,2.50
2017-09-15T06:21:08.930Z,3.90
2017-09-15T06:23:35.874Z,4.10
2017-09-15T06:26:02.162Z,4.40
2017-09-15T06:28:28.357Z,7.30
2017-09-15T06:30:54.567Z,7.77
2017-09-15T06:33:21.573Z,4.47
2017-09-15T06:35:47.773Z,3.73
2017-09-15T06:38:13.986Z,3.50
2017-09-15T06:40:40.989Z,3.30
2017-09-15T06:43:07.232Z,3.47
2017-09-15T06:45:33.473Z,3.63
2017-09-15T06:47:59.733Z,3.43
2017-09-15T06:50:25.962Z,3.20
2017-09-15T06:52:52.188Z,4.03
2017-09-15T06:55:19.038Z,3.27
2017-09-15T06:57:46.059Z,3.43
2017-09-15T07:00:12.471Z,3.00
2017-09-15T07:02:38.747Z,3.13
2017-09-15T07:05:05.710Z,4.50
2017-09-15T07:07:32.057Z,3.93
2017-09-15T07:09:58.310Z,3.90
2017-09-15T07:12:24.642Z,4.23
2017-09-15T07:14:50.891Z,2.80
2017-09-15T07:17:17.140Z,2.27
2017-09-15T07:19:43.358Z,2.70
2017-09-15T07:22:09.590Z,2.93
2017-09-15T07:24:35.846Z,3.30
2017-09-15T07:27:02.150Z,2.87
2017-09-15T07:29:28.366Z,3.27
2017-09-15T07:31:54.587Z,3.37
2017-09-15T07:34:20.819Z,3.50
2017-09-15T07:36:47.041Z,3.93
2017-09-15T07:39:13.266Z,3.30
2017-09-15T07:41:39.470Z,3.60
2017-09-15T07:44:05.715Z,3.87
2017-09-15T07:46:32.965Z,4.03
2017-09-15T07:48:59.176Z,3.10
2017-09-15T07:51:26.123Z,4.40
2017-09-15T07:53:55.708Z,3.30
2017-09-15T07:56:21.913Z,3.33
2017-09-15T07:58:48.207Z,3.77
2017-09-15T08:01:14.627Z,4.60
2017-09-15T08:03:41.587Z,2.90
2017-09-15T08:06:07.956Z,2.90
2017-09-15T08:08:34.682Z,3.10
2017-09-15T08:11:00.901Z,3.20
2017-09-15T08:13:27.138Z,3.90
2017-09-15T08:15:53.371Z,4.70
2017-09-15T08:18:19.640Z,3.30
2017-09-15T08:20:46.646Z,3.27
2017-09-15T08:23:12.870Z,3.20
2017-09-15T08:25:39.102Z,3.07
2017-09-15T08:28:05.326Z,3.57
2017-09-15T08:30:31.798Z,2.87
2017-09-15T08:32:58.030Z,3.37
2017-09-15T08:35:24.264Z,2.60
2017-09-15T08:37:50.544Z,3.27
2017-09-15T08:40:16.762Z,2.57
2017-09-15T08:42:42.962Z,2.90
2017-09-15T08:45:09.194Z,2.93
2017-09-15T08:47:35.422Z,2.70
2017-09-15T08:50:01.742Z,3.40
2017-09-15T08:52:27.982Z,2.30
2017-09-15T08:54:54.196Z,3.23
2017-09-15T08:57:20.423Z,3.10
2017-09-15T08:59:46.728Z,2.43
2017-09-15T09:02:13.102Z,2.70
2017-09-15T09:04:39.383Z,3.40
2017-09-15T09:07:06.391Z,2.00
2017-09-15T09:09:33.258Z,3.37
2017-09-15T09:11:59.598Z,2.80
2017-09-15T09:14:25.858Z,2.40
2017-09-15T09:16:52.817Z,3.07
2017-09-15T09:19:19.787Z,1.83
2017-09-15T09:21:47.386Z,2.27
2017-09-15T09:24:13.605Z,2.50
2017-09-15T09:26:39.850Z,2.53
2017-09-15T09:29:06.105Z,1.90
2017-09-15T09:31:33.183Z,2.60
2017-09-15T09:33:59.459Z,2.53
2017-09-15T09:36:25.706Z,2.40
2017-09-15T09:38:51.910Z,1.93
2017-09-15T09:41:18.125Z,2.17
2017-09-15T09:43:44.374Z,3.00
2017-09-15T09:46:10.578Z,2.03
2017-09-15T09:48:36.774Z,1.97
2017-09-15T09:51:03.778Z,3.10
2017-09-15T09:53:30.010Z,3.17
2017-09-15T09:55:56.221Z,2.70
2017-09-15T09:58:23.306Z,2.10
2017-09-15T10:00:49.594Z,2.70
2017-09-15T10:03:16.736Z,2.20
2017-09-15T10:05:42.965Z,2.90
2017-09-15T10:08:09.214Z,2.50
2017-09-15T10:10:35.455Z,3.03
2017-09-15T10:13:02.765Z,1.50
2017-09-15T10:15:29.720Z,2.13
2017-09-15T10:17:56.670Z,2.10
2017-09-15T10:20:23.883Z,2.77
2017-09-15T10:22:50.138Z,2.40
2017-09-15T10:25:21.164Z,2.23
2017-09-15T10:27:47.462Z,2.13
2017-09-15T10:30:13.690Z,1.90
2017-09-15T10:32:45.210Z,2.40
2017-09-15T10:35:11.882Z,2.50
2017-09-15T10:37:38.967Z,2.10
2017-09-15T10:40:08.258Z,2.00
2017-09-15T10:42:34.546Z,2.60
2017-09-15T10:45:03.654Z,1.87
2017-09-15T10:47:29.882Z,3.50
2017-09-15T10:49:56.149Z,3.60
2017-09-15T10:52:22.375Z,2.20
2017-09-15T10:54:48.596Z,1.90
2017-09-15T11:00:09.606Z,1.73
2017-09-15T11:05:50.162Z,1.80
2017-09-15T11:08:18.885Z,1.87
2017-09-15T11:10:45.682Z,2.13
2017-09-15T11:15:43.271Z,2.50
2017-09-15T11:18:10.246Z,2.30
2017-09-15T11:20:36.518Z,2.00
2017-09-15T11:23:02.786Z,1.80
2017-09-15T11:25:32.117Z,2.00
2017-09-15T11:28:02.835Z,1.70
2017-09-15T11:31:11.282Z,2.20
2017-09-15T11:33:37.512Z,2.37
2017-09-15T11:36:03.746Z,2.60
2017-09-15T11:38:39.030Z,3.10
2017-09-15T11:41:21.225Z,2.70
2017-09-15T11:43:48.158Z,1.50
2017-09-15T11:46:15.201Z,2.10
2017-09-15T11:48:43.598Z,3.10
2017-09-15T11:51:17.474Z,2.00
2017-09-15T11:53:43.713Z,1.40
2017-09-15T11:57:05.959Z,2.90
2017-09-15T11:59:32.266Z,1.40
2017-09-15T12:02:26.656Z,1.63
2017-09-15T12:04:54.728Z,2.17
2017-09-15T12:07:26.486Z,4.37
2017-09-15T12:10:30.239Z,3.00
2017-09-15T12:12:59.483Z,1.13
2017-09-15T12:15:28.900Z,1.30
2017-09-15T12:17:57.022Z,1.40
2017-09-15T12:20:23.367Z,1.90
2017-09-15T12:22:49.614Z,1.70
2017-09-15T12:25:15.894Z,1.93
2017-09-15T12:27:42.878Z,1.50
2017-09-15T12:30:09.115Z,1.97
2017-09-15T12:32:37.518Z,1.33
2017-09-15T12:35:03.846Z,1.20
2017-09-15T12:37:30.161Z,1.60
2017-09-15T12:39:56.402Z,1.70
2017-09-15T12:42:22.700Z,1.60
2017-09-15T12:44:48.923Z,1.40
2017-09-15T12:47:15.156Z,1.60
2017-09-15T12:49:41.401Z,1.47
2017-09-15T12:52:07.617Z,1.93
2017-09-15T12:54:33.840Z,1.77
2017-09-15T12:57:00.084Z,2.00
2017-09-15T12:59:26.314Z,2.60
2017-09-15T13:01:52.558Z,1.90
2017-09-15T13:04:18.806Z,2.70
2017-09-15T13:06:45.243Z,2.30
2017-09-15T13:09:11.695Z,1.40
2017-09-15T13:11:37.946Z,1.63
2017-09-15T13:14:04.921Z,1.60
2017-09-15T13:16:31.150Z,2.10
2017-09-15T13:18:57.481Z,2.30
2017-09-15T13:21:23.723Z,2.13
2017-09-15T13:23:49.942Z,2.00
2017-09-15T13:26:16.909Z,2.07
2017-09-15T13:28:43.153Z,1.90
2017-09-15T13:31:09.411Z,2.07
2017-09-15T13:33:35.682Z,2.60
2017-09-15T13:36:02.093Z,1.93
2017-09-15T13:38:29.091Z,1.93
2017-09-15T13:40:55.326Z,1.77
2017-09-15T13:43:21.579Z,2.07
2017-09-15T13:48:52.106Z,2.27
2017-09-15T13:51:26.813Z,2.07
2017-09-15T13:54:00.155Z,2.43
2017-09-15T13:56:27.783Z,2.10
2017-09-15T13:58:54.274Z,1.73
2017-09-15T14:01:22.260Z,2.17
2017-09-15T14:03:48.758Z,2.60
2017-09-15T14:06:16.361Z,2.47
2017-09-15T14:08:43.917Z,2.03
2017-09-15T14:11:10.352Z,2.80
2017-09-15T14:13:36.586Z,2.20
2017-09-15T14:16:03.898Z,1.50
2017-09-15T14:18:37.922Z,2.23
2017-09-15T14:21:04.179Z,1.90
2017-09-15T14:23:31.425Z,1.90
2017-09-15T14:25:57.778Z,2.17
2017-09-15T14:28:26.318Z,2.63
2017-09-15T14:30:59.932Z,2.47
2017-09-15T14:33:51.516Z,2.53
2017-09-15T14:36:19.398Z,2.20
2017-09-15T14:38:45.635Z,3.20
2017-09-15T14:41:15.986Z,2.30
2017-09-15T14:43:49.582Z,2.40
2017-09-15T14:46:15.946Z,2.27
2017-09-15T14:49:01.760Z,2.90
2017-09-15T14:51:41.892Z,2.30
2017-09-15T14:54:11.766Z,1.80
2017-09-15T14:56:48.070Z,2.30
2017-09-15T15:01:56.913Z,2.37
2017-09-15T15:04:31.260Z,2.40
2017-09-15T15:07:03.686Z,2.63
2017-09-15T15:09:36.277Z,2.13
2017-09-15T15:12:04.749Z,2.73
2017-09-15T15:14:31.077Z,3.10
2017-09-15T15:17:08.308Z,2.17
2017-09-15T15:19:38.272Z,2.63
2017-09-15T15:22:21.670Z,2.37
2017-09-15T15:24:53.640Z,2.50
2017-09-15T15:27:20.806Z,3.13
2017-09-15T15:29:51.753Z,3.33
2017-09-15T15:32:18.118Z,3.13
2017-09-15T15:34:57.054Z,2.80
2017-09-15T15:37:30.264Z,2.37
2017-09-15T15:39:57.354Z,2.70
2017-09-15T15:42:41.318Z,2.53
2017-09-15T15:45:11.227Z,2.73
2017-09-15T15:47:40.534Z,3.17
2017-09-15T15:50:08.962Z,2.47
2017-09-15T15:52:39.624Z,3.90
2017-09-15T15:55:08.004Z,3.33
2017-09-15T15:57:39.031Z,3.33
2017-09-15T16:00:05.380Z,3.30
2017-09-15T16:02:33.069Z,2.90
2017-09-15T16:05:03.589Z,3.33
2017-09-15T16:07:39.468Z,3.83
2017-09-15T16:10:05.802Z,3.00
2017-09-15T16:12:35.615Z,3.00
2017-09-15T16:15:03.378Z,3.10
2017-09-15T16:17:29.640Z,3.10
2017-09-15T16:19:55.857Z,2.93
2017-09-15T16:22:22.352Z,3.20
2017-09-15T16:24:55.478Z,4.00
2017-09-15T16:27:22.254Z,3.50
2017-09-15T16:29:49.691Z,2.90
2017-09-15T16:32:15.947Z,4.50
2017-09-15T16:34:43.210Z,8.70
2017-09-15T16:37:09.458Z,7.70
2017-09-15T16:39:42.632Z,9.97
2017-09-15T16:42:14.991Z,10.27
2017-09-15T16:44:49.682Z,9.00
2017-09-15T16:47:23.213Z,9.10
2017-09-15T16:49:49.518Z,9.37
2017-09-15T16:52:15.758Z,9.30
2017-09-15T16:54:41.975Z,10.57
2017-09-15T16:57:08.956Z,8.77
2017-09-15T16:59:35.195Z,8.17
2017-09-15T17:02:01.451Z,9.10
2017-09-15T17:04:27.782Z,9.50
2017-09-15T17:09:27.026Z,9.07
2017-09-15T17:11:54.127Z,10.30
2017-09-15T17:14:20.538Z,10.50
2017-09-15T17:19:40.919Z,10.43
2017-09-15T17:22:07.177Z,12.00
2017-09-15T17:24:36.506Z,12.07
2017-09-15T17:27:05.665Z,12.53
2017-09-15T17:29:46.707Z,12.00
2017-09-15T17:32:18.786Z,10.80
2017-09-15T17:34:46.734Z,11.43
2017-09-15T17:37:14.939Z,12.10
2017-09-15T17:39:45.262Z,11.90
2017-09-15T17:42:13.494Z,11.80
2017-09-15T17:44:39.710Z,12.40
2017-09-15T17:47:06.789Z,13.10
2017-09-15T17:49:34.466Z,13.97
2017-09-15T17:52:00.693Z,13.93
2017-09-15T17:54:27.892Z,12.10
2017-09-15T17:56:56.135Z,13.03
2017-09-15T17:59:22.382Z,12.03
2017-09-15T18:01:48.608Z,15.07
2017-09-15T18:04:15.018Z,13.03
2017-09-15T18:06:41.258Z,12.77
2017-09-15T18:09:08.512Z,13.17
2017-09-15T18:11:34.772Z,12.83
2017-09-15T18:14:02.019Z,16.00
2017-09-15T18:16:28.443Z,15.17
2017-09-15T18:18:54.752Z,14.13
2017-09-15T18:21:21.042Z,12.63
2017-09-15T18:23:48.374Z,12.57
2017-09-15T18:26:14.637Z,12.20
2017-09-15T18:28:40.899Z,12.00
2017-09-15T18:31:07.444Z,12.10
2017-09-15T18:33:33.826Z,12.00
2017-09-15T18:36:00.834Z,12.67
2017-09-15T18:38:27.106Z,11.33
2017-09-15T18:40:53.391Z,13.47
2017-09-15T18:43:19.692Z,11.40
2017-09-15T18:45:45.936Z,14.27
2017-09-15T18:48:12.230Z,12.63
2017-09-15T18:50:38.546Z,13.30
2017-09-15T18:53:04.785Z,12.63
2017-09-15T18:55:31.099Z,14.77
2017-09-15T18:57:57.409Z,13.77
2017-09-15T19:00:23.745Z,13.37
2017-09-15T19:02:50.105Z,13.70
2017-09-15T19:05:19.001Z,12.87
2017-09-15T19:07:45.458Z,14.20
2017-09-15T19:10:11.898Z,13.17
2017-09-15T19:12:38.175Z,11.60
2017-09-15T19:15:04.587Z,13.47
2017-09-15T19:17:31.044Z,12.27
2017-09-15T19:19:57.389Z,14.20
2017-09-15T19:22:23.729Z,11.77
2017-09-15T19:24:50.058Z,12.33
2017-09-15T19:27:16.336Z,10.00
2017-09-15T19:29:43.365Z,13.77
2017-09-15T19:32:09.728Z,12.47
2017-09-15T19:34:37.701Z,11.80
2017-09-15T19:37:04.293Z,13.17
2017-09-15T19:39:30.654Z,12.40
2017-09-15T19:41:57.679Z,13.50
2017-09-15T19:44:24.034Z,12.53
2017-09-15T19:46:51.120Z,11.23
2017-09-15T19:49:17.373Z,11.73
2017-09-15T19:51:43.697Z,12.00
2017-09-15T19:54:10.011Z,13.00
2017-09-15T19:56:37.087Z,13.83
2017-09-15T19:59:03.412Z,12.87
2017-09-15T20:01:29.726Z,12.93
2017-09-15T20:03:56.027Z,13.40
2017-09-15T20:06:22.309Z,13.23
2017-09-15T20:08:48.931Z,13.73
2017-09-15T20:11:16.820Z,13.00
2017-09-15T20:13:43.227Z,14.10
2017-09-15T20:16:09.559Z,14.30
2017-09-15T20:18:35.992Z,13.27
2017-09-15T20:21:02.631Z,12.47
2017-09-15T20:23:31.766Z,12.40
2017-09-15T20:25:59.853Z,13.10
2017-09-15T20:28:26.121Z,14.00
2017-09-15T20:30:53.110Z,12.70
2017-09-15T20:33:19.343Z,12.07
2017-09-15T20:35:45.578Z,11.77
2017-09-15T20:39:01.174Z,28.80
2017-09-15T20:41:49.732Z,31.17
2017-09-15T20:44:28.037Z,29.37
2017-09-15T20:47:09.819Z,14.73
2017-09-15T20:49:51.475Z,12.60
2017-09-15T20:52:26.724Z,12.80
2017-09-15T20:54:53.701Z,12.83
2017-09-15T20:57:28.779Z,13.40
2017-09-15T20:59:58.242Z,14.70
2017-09-15T21:02:25.215Z,12.50
2017-09-15T21:04:51.470Z,11.70
2017-09-15T21:07:17.694Z,12.57
2017-09-15T21:09:43.930Z,12.37
2017-09-15T21:12:10.236Z,12.67
2017-09-15T21:14:38.970Z,12.37
2017-09-15T21:17:05.688Z,13.93
2017-09-15T21:19:34.819Z,13.97
2017-09-15T21:22:01.070Z,13.80
2017-09-15T21:24:28.869Z,12.30
2017-09-15T21:26:56.265Z,12.27
2017-09-15T21:29:24.493Z,12.80
2017-09-15T21:31:50.754Z,14.30
2017-09-15T21:36:49.806Z,12.73
2017-09-15T21:39:45.522Z,12.27
2017-09-15T21:42:14.331Z,12.50
2017-09-15T21:44:42.330Z,12.73
2017-09-15T21:47:08.577Z,10.77
2017-09-15T21:49:34.798Z,11.40
2017-09-15T21:52:02.345Z,12.70
2017-09-15T21:54:30.566Z,11.17
2017-09-15T21:56:56.779Z,12.10
2017-09-15T21:59:24.046Z,12.70
2017-09-15T22:01:50.307Z,11.23
2017-09-15T22:04:24.161Z,11.90
2017-09-15T22:06:50.418Z,12.70
2017-09-15T22:09:24.204Z,13.37
2017-09-15T22:11:50.444Z,13.17
2017-09-15T22:14:19.469Z,12.10
2017-09-15T22:16:45.725Z,12.10
2017-09-15T22:19:14.410Z,11.03
2017-09-15T22:21:43.007Z,13.20
2017-09-15T22:24:11.107Z,13.40
2017-09-15T22:26:38.247Z,14.70
2017-09-15T22:29:05.461Z,12.30
2017-09-15T22:31:31.770Z,13.83
2017-09-15T22:34:00.055Z,14.00
2017-09-15T22:36:26.282Z,13.30
2017-09-15T22:38:55.715Z,13.10
2017-09-15T22:41:25.074Z,12.50
2017-09-15T22:43:51.302Z,13.30
2017-09-15T22:46:17.555Z,15.30
2017-09-15T22:48:43.811Z,12.43
2017-09-15T22:51:10.046Z,16.13
2017-09-15T22:53:36.295Z,13.87
2017-09-15T22:56:03.290Z,14.67
2017-09-15T22:58:29.513Z,14.10
2017-09-15T23:00:59.730Z,13.80
2017-09-15T23:03:28.238Z,14.30
2017-09-15T23:05:58.265Z,15.50
2017-09-15T23:08:25.817Z,13.53
2017-09-15T23:10:55.316Z,13.87
2017-09-15T23:13:21.578Z,12.70
2017-09-15T23:15:47.821Z,14.03
2017-09-15T23:18:14.111Z,14.40
2017-09-15T23:20:42.293Z,14.17
2017-09-15T23:23:08.713Z,14.90
2017-09-15T23:25:34.942Z,14.90
2017-09-15T23:28:02.414Z,16.50
2017-09-15T23:30:29.704Z,14.17
2017-09-15T23:32:58.028Z,13.30
2017-09-15T23:35:25.470Z,13.33
2017-09-15T23:37:52.471Z,14.60
2017-09-15T23:40:18.741Z,14.80
2017-09-15T23:42:44.967Z,13.47
2017-09-15T23:45:11.227Z,15.00
2017-09-15T23:47:38.190Z,14.10
2017-09-15T23:50:04.434Z,14.00
2017-09-15T23:52:30.685Z,13.27
2017-09-15T23:54:56.922Z,14.93
2017-09-15T23:57:23.153Z,14.23
2017-09-15T23:59:49.418Z,13.73
